Time;durP1;ratioP1;P1;durP2;ratioP2;P2;SDS_P1;SDS_P2;PMS_P1;PMS_P2;Temp;Humidity;BMP_temperature;BMP_pressure;BME280_temperature;BME280_humidity;BME280_pressure;Samples;Min_cycle;Max_cycle;Signal;HPM_P1;HPM_P2
2022/08/15 00:01:47;;;;;;;4.65;3.97;;;23.10;50.50;;;;;;5023583;28;20850;-76
2022/08/15 00:04:12;;;;;;;4.47;3.85;;;23.00;50.50;;;;;;5019048;28;20045;-76
2022/08/15 00:06:43;;;;;;;6.68;4.20;;;23.00;50.60;;;;;;5019013;28;20056;-77
2022/08/15 00:09:18;;;;;;;4.43;4.03;;;23.00;50.70;;;;;;5018655;28;20143;-77
2022/08/15 00:11:45;;;;;;;7.13;3.97;;;23.00;50.90;;;;;;5033441;28;20513;-76
2022/08/15 00:14:14;;;;;;;5.47;3.85;;;22.90;50.70;;;;;;5018552;28;20033;-77
2022/08/15 00:16:40;;;;;;;4.30;3.67;;;22.90;50.80;;;;;;5007516;28;20021;-76
2022/08/15 00:19:11;;;;;;;7.35;4.30;;;22.90;50.90;;;;;;5003044;28;20025;-76
2022/08/15 00:21:43;;;;;;;5.47;4.32;;;22.90;50.90;;;;;;5022014;28;20033;-77
2022/08/15 00:24:10;;;;;;;6.28;4.18;;;22.90;51.10;;;;;;5026214;28;20040;-77
2022/08/15 00:26:36;;;;;;;5.80;4.10;;;22.90;51.00;;;;;;5018895;28;20037;-76
2022/08/15 00:29:03;;;;;;;4.70;3.95;;;22.80;51.10;;;;;;5021113;28;20033;-76
2022/08/15 00:31:31;;;;;;;5.82;4.40;;;22.80;51.10;;;;;;5019561;28;20038;-76
2022/08/15 00:33:57;;;;;;;4.88;4.07;;;22.80;51.20;;;;;;5021609;28;20034;-76
2022/08/15 00:36:23;;;;;;;5.05;4.53;;;22.80;51.30;;;;;;5021024;28;20033;-76
2022/08/15 00:38:48;;;;;;;5.80;4.35;;;22.80;51.30;;;;;;5001525;28;20033;-76
2022/08/15 00:43:59;;;;;;;5.65;4.40;;;22.70;51.50;;;;;;5003570;28;20037;-76
2022/08/15 00:46:26;;;;;;;4.43;4.03;;;22.70;51.40;;;;;;4994342;28;20053;-76
2022/08/15 00:48:52;;;;;;;4.88;4.43;;;22.70;51.50;;;;;;5026727;28;20021;-76
2022/08/15 00:51:30;;;;;;;5.60;4.15;;;22.70;51.60;;;;;;5010395;28;20042;-76
2022/08/15 00:54:08;;;;;;;4.95;4.10;;;22.70;51.90;;;;;;5041267;28;20516;-77
2022/08/15 00:56:37;;;;;;;4.85;4.35;;;22.70;51.80;;;;;;5001960;28;20029;-76
2022/08/15 00:59:04;;;;;;;4.55;4.15;;;22.60;51.70;;;;;;5019857;28;20491;-77
2022/08/15 01:01:30;;;;;;;5.28;3.83;;;22.60;51.80;;;;;;5019897;28;20575;-76
2022/08/15 01:03:55;;;;;;;4.93;4.40;;;22.60;51.80;;;;;;5018723;28;20038;-77
2022/08/15 01:06:22;;;;;;;5.65;4.40;;;22.60;51.90;;;;;;5022072;28;20049;-76
2022/08/15 01:08:48;;;;;;;5.20;4.40;;;22.60;52.00;;;;;;4991737;28;20494;-76
2022/08/15 01:11:24;;;;;;;4.63;4.15;;;22.60;52.00;;;;;;4989865;28;20045;-76
2022/08/15 01:13:50;;;;;;;6.30;4.55;;;22.60;52.40;;;;;;5015285;28;20057;-76
2022/08/15 01:16:15;;;;;;;6.43;4.72;;;22.60;52.20;;;;;;5021838;28;20042;-77
2022/08/15 01:18:41;;;;;;;5.13;4.57;;;22.50;52.20;;;;;;5023474;28;20523;-76
2022/08/15 01:21:17;;;;;;;5.30;4.55;;;22.50;52.50;;;;;;5004897;28;20037;-77
2022/08/15 01:23:58;;;;;;;5.57;4.55;;;22.50;52.60;;;;;;4995398;28;20045;-76
2022/08/15 01:26:24;;;;;;;4.60;4.20;;;22.40;52.70;;;;;;4981019;28;20037;-76
2022/08/15 01:28:53;;;;;;;5.10;4.38;;;22.40;52.70;;;;;;5006422;28;20120;-77
2022/08/15 01:31:19;;;;;;;7.20;4.40;;;22.40;52.70;;;;;;5009292;28;20036;-76
2022/08/15 01:33:50;;;;;;;5.38;4.43;;;22.40;52.80;;;;;;5003808;28;20920;-77
2022/08/15 01:36:16;;;;;;;4.75;4.10;;;22.40;53.00;;;;;;5019324;28;20056;-77
2022/08/15 01:38:45;;;;;;;6.20;3.92;;;22.30;52.90;;;;;;5023446;28;20054;-76
2022/08/15 01:41:33;;;;;;;4.65;4.15;;;22.30;53.10;;;;;;5021030;28;20029;-79
2022/08/15 01:44:02;;;;;;;8.15;4.53;;;22.30;53.20;;;;;;5015989;28;20406;-76
2022/08/15 01:46:29;;;;;;;4.90;4.40;;;22.30;53.30;;;;;;5021214;28;20068;-78
2022/08/15 01:49:08;;;;;;;6.05;4.88;;;22.20;53.40;;;;;;5011034;28;20097;-76
2022/08/15 01:51:34;;;;;;;6.95;4.63;;;22.20;53.60;;;;;;5008517;28;20045;-76
2022/08/15 01:54:05;;;;;;;5.22;4.20;;;22.20;53.40;;;;;;5024529;28;20026;-76
2022/08/15 01:56:38;;;;;;;4.60;3.90;;;22.20;53.60;;;;;;5017713;28;20033;-77
2022/08/15 01:59:05;;;;;;;6.90;5.22;;;22.20;53.60;;;;;;5010690;28;20034;-77
2022/08/15 02:01:50;;;;;;;5.13;4.57;;;22.20;53.60;;;;;;5024549;28;20037;-76
2022/08/15 02:04:17;;;;;;;5.28;4.43;;;22.20;54.20;;;;;;5010351;28;20109;-77
2022/08/15 02:06:44;;;;;;;5.63;4.88;;;22.20;53.80;;;;;;5021530;28;20041;-77
2022/08/15 02:09:12;;;;;;;6.35;4.70;;;22.20;53.90;;;;;;5001684;28;20121;-76
2022/08/15 02:11:38;;;;;;;4.85;4.35;;;22.10;53.90;;;;;;5021871;28;20090;-76
2022/08/15 02:14:03;;;;;;;9.38;4.75;;;22.10;53.90;;;;;;5026604;28;20441;-76
2022/08/15 02:16:33;;;;;;;5.82;4.45;;;22.10;54.00;;;;;;5025759;28;20045;-75
2022/08/15 02:18:59;;;;;;;7.15;4.57;;;22.10;54.10;;;;;;5008034;28;20041;-76
2022/08/15 02:21:25;;;;;;;8.60;5.20;;;22.10;54.10;;;;;;5016158;28;20045;-77
2022/08/15 02:23:51;;;;;;;4.75;4.25;;;22.10;54.20;;;;;;5025603;28;20028;-77
2022/08/15 02:26:16;;;;;;;5.18;4.50;;;22.10;54.10;;;;;;5036451;28;20041;-76
2022/08/15 02:28:42;;;;;;;7.18;4.85;;;22.10;54.20;;;;;;5013761;28;20042;-77
2022/08/15 02:31:16;;;;;;;4.65;4.15;;;22.00;54.20;;;;;;5001407;28;20502;-76
2022/08/15 02:33:48;;;;;;;5.15;4.32;;;22.00;54.20;;;;;;4991527;28;20044;-76
2022/08/15 02:36:16;;;;;;;5.28;4.32;;;22.10;54.20;;;;;;5005641;28;20033;-76
2022/08/15 02:38:41;;;;;;;5.50;4.72;;;22.00;54.20;;;;;;5041486;28;20105;-75
2022/08/15 02:41:07;;;;;;;5.32;4.70;;;22.00;54.30;;;;;;5012182;28;20280;-77
2022/08/15 02:43:32;;;;;;;10.02;4.88;;;22.00;54.30;;;;;;4994462;28;20482;-77
2022/08/15 02:45:59;;;;;;;6.13;4.13;;;22.00;54.40;;;;;;5028927;28;20053;-77
2022/08/15 02:48:24;;;;;;;5.28;4.60;;;22.00;54.40;;;;;;5005332;28;20030;-76
2022/08/15 02:50:50;;;;;;;4.65;4.13;;;22.00;54.30;;;;;;5033524;28;20029;-76
2022/08/15 02:53:17;;;;;;;5.70;4.25;;;22.00;54.30;;;;;;5029265;28;20045;-76
2022/08/15 02:55:45;;;;;;;6.88;4.68;;;22.00;54.40;;;;;;5030657;28;20034;-76
2022/08/15 02:58:11;;;;;;;5.93;4.82;;;21.90;54.40;;;;;;5032561;28;20037;-77
2022/08/15 03:00:37;;;;;;;6.80;4.35;;;21.90;54.50;;;;;;5001043;28;20037;-77
2022/08/15 03:03:07;;;;;;;7.32;4.18;;;21.90;54.50;;;;;;5018924;28;20048;-77
2022/08/15 03:05:32;;;;;;;6.78;4.85;;;21.90;54.60;;;;;;4996698;28;20099;-76
2022/08/15 03:07:58;;;;;;;5.40;4.15;;;21.90;54.50;;;;;;5011289;28;20025;-76
2022/08/15 03:10:24;;;;;;;8.07;4.60;;;21.90;54.60;;;;;;5017388;28;20034;-78
2022/08/15 03:12:54;;;;;;;4.95;4.40;;;21.80;54.60;;;;;;5026283;28;20097;-77
2022/08/15 03:15:46;;;;;;;4.53;4.13;;;21.80;54.60;;;;;;5033295;28;20052;-77
2022/08/15 03:18:12;;;;;;;7.13;5.13;;;21.80;54.70;;;;;;5027579;28;20632;-77
2022/08/15 03:20:38;;;;;;;5.28;4.47;;;21.80;54.70;;;;;;5029206;28;20044;-76
2022/08/15 03:23:04;;;;;;;5.95;3.90;;;21.80;54.80;;;;;;5019890;28;20535;-78
2022/08/15 03:25:30;;;;;;;9.93;4.57;;;21.80;54.80;;;;;;5010294;28;20033;-77
2022/08/15 03:27:56;;;;;;;6.13;4.72;;;21.70;54.80;;;;;;5000471;28;20064;-76
2022/08/15 03:30:21;;;;;;;4.93;4.38;;;21.70;54.90;;;;;;4996236;28;20049;-76
2022/08/15 03:32:55;;;;;;;5.70;4.30;;;21.60;55.00;;;;;;5021419;28;20534;-76
2022/08/15 03:35:22;;;;;;;4.72;4.22;;;21.60;55.10;;;;;;5014693;28;20048;-77
2022/08/15 03:37:47;;;;;;;6.55;4.53;;;21.60;55.10;;;;;;5031987;28;20041;-77
2022/08/15 03:40:13;;;;;;;6.22;4.40;;;21.50;55.10;;;;;;5022771;28;20045;-77
2022/08/15 03:42:38;;;;;;;5.72;4.72;;;21.60;55.20;;;;;;5009422;28;20034;-75
2022/08/15 03:45:09;;;;;;;5.03;4.38;;;21.50;55.20;;;;;;5006818;28;20087;-76
2022/08/15 03:47:35;;;;;;;8.15;3.95;;;21.50;55.30;;;;;;5026348;28;20022;-77
2022/08/15 03:50:00;;;;;;;9.30;4.38;;;21.50;55.30;;;;;;5017558;28;20044;-76
2022/08/15 03:52:26;;;;;;;4.97;4.50;;;21.50;55.30;;;;;;5035539;28;20524;-76
2022/08/15 03:54:51;;;;;;;5.07;4.57;;;21.40;55.40;;;;;;5027050;28;20029;-77
2022/08/15 03:57:17;;;;;;;5.35;4.85;;;21.40;55.40;;;;;;5019616;28;20117;-77
2022/08/15 03:59:43;;;;;;;5.32;4.82;;;21.40;55.50;;;;;;5020331;28;20061;-76
2022/08/15 04:02:12;;;;;;;4.57;4.10;;;21.40;55.60;;;;;;5023239;28;20121;-77
2022/08/15 04:04:38;;;;;;;5.43;4.50;;;21.30;55.50;;;;;;5009462;28;20043;-77
2022/08/15 04:07:04;;;;;;;5.85;4.97;;;21.30;55.60;;;;;;5024796;28;20033;-77
2022/08/15 04:09:30;;;;;;;6.32;4.50;;;21.30;55.70;;;;;;5013303;28;20029;-78
2022/08/15 04:11:55;;;;;;;5.55;4.55;;;21.20;55.70;;;;;;5023205;28;20044;-77
2022/08/15 04:14:21;;;;;;;4.93;4.43;;;21.20;55.90;;;;;;5028650;28;20029;-77
2022/08/15 04:16:47;;;;;;;4.75;4.20;;;21.20;56.00;;;;;;5024253;28;20053;-76
2022/08/15 04:19:15;;;;;;;5.13;4.40;;;21.20;56.10;;;;;;5016506;28;20159;-76
2022/08/15 04:21:41;;;;;;;7.38;4.63;;;21.20;56.10;;;;;;5019687;28;20105;-76
2022/08/15 04:24:07;;;;;;;6.95;4.57;;;21.10;56.30;;;;;;5020513;28;20517;-76
2022/08/15 04:26:34;;;;;;;5.40;4.90;;;21.10;56.30;;;;;;5019356;28;20033;-76
2022/08/15 04:29:00;;;;;;;5.68;5.03;;;21.10;56.30;;;;;;5021801;28;20052;-77
2022/08/15 04:31:26;;;;;;;5.20;4.70;;;21.10;56.40;;;;;;5019383;28;20053;-76
2022/08/15 04:33:51;;;;;;;5.47;4.35;;;21.10;56.40;;;;;;5025282;28;20693;-77
2022/08/15 04:36:17;;;;;;;6.07;4.90;;;21.00;56.40;;;;;;5028562;28;20037;-77
2022/08/15 04:38:43;;;;;;;7.38;4.75;;;21.10;56.50;;;;;;5027026;28;20117;-77
2022/08/15 04:41:09;;;;;;;5.43;4.18;;;21.10;56.50;;;;;;5009729;28;20048;-77
2022/08/15 04:43:36;;;;;;;5.22;4.13;;;21.10;56.60;;;;;;5017495;28;20549;-77
2022/08/15 04:46:02;;;;;;;5.35;4.85;;;21.10;56.70;;;;;;5019296;28;20115;-77
2022/08/15 04:48:27;;;;;;;4.55;4.10;;;21.10;56.80;;;;;;5001471;28;20542;-76
2022/08/15 04:50:54;;;;;;;5.20;4.32;;;21.00;56.70;;;;;;5008748;28;20093;-77
2022/08/15 04:53:21;;;;;;;6.05;4.30;;;21.00;56.80;;;;;;5014776;28;20041;-78
2022/08/15 04:55:49;;;;;;;7.10;4.90;;;21.00;56.80;;;;;;5034065;28;20037;-77
2022/08/15 04:58:14;;;;;;;5.88;4.40;;;21.00;56.80;;;;;;5020227;28;20041;-77
2022/08/15 05:00:43;;;;;;;6.82;4.97;;;21.00;57.10;;;;;;5027345;28;20071;-76
2022/08/15 05:03:11;;;;;;;5.68;5.03;;;21.00;57.10;;;;;;5026933;28;20041;-77
2022/08/15 05:05:40;;;;;;;7.10;4.93;;;21.00;57.20;;;;;;5026857;28;20037;-76
2022/08/15 05:08:06;;;;;;;5.40;4.80;;;21.00;57.20;;;;;;5028246;28;20046;-77
2022/08/15 05:10:32;;;;;;;7.13;4.60;;;20.90;57.20;;;;;;5027580;28;20037;-76
2022/08/15 05:13:06;;;;;;;6.15;4.53;;;20.90;57.30;;;;;;5029874;28;20041;-76
2022/08/15 05:15:32;;;;;;;4.65;4.25;;;20.90;57.40;;;;;;5012413;28;20088;-77
2022/08/15 05:17:57;;;;;;;5.95;4.45;;;20.90;57.50;;;;;;5019798;28;20034;-76
2022/08/15 05:20:23;;;;;;;6.55;4.57;;;20.90;57.60;;;;;;5026549;28;20052;-77
2022/08/15 05:22:52;;;;;;;5.57;4.40;;;20.80;57.60;;;;;;5040321;28;20029;-77
2022/08/15 05:25:18;;;;;;;6.07;4.28;;;20.90;57.80;;;;;;5011245;28;20106;-75
2022/08/15 05:27:43;;;;;;;6.32;4.18;;;20.90;57.90;;;;;;5026627;28;20489;-78
2022/08/15 05:30:09;;;;;;;5.88;4.00;;;20.90;57.90;;;;;;4997656;28;20798;-77
2022/08/15 05:32:35;;;;;;;5.63;4.40;;;20.90;58.00;;;;;;5015717;28;20033;-76
2022/08/15 05:35:00;;;;;;;6.88;4.45;;;20.90;57.90;;;;;;5020040;28;20687;-76
2022/08/15 05:37:26;;;;;;;4.80;4.30;;;20.90;58.00;;;;;;5039279;28;20812;-78
2022/08/15 05:39:52;;;;;;;4.35;3.95;;;20.90;58.00;;;;;;4993872;28;20041;-78
2022/08/15 05:42:40;;;;;;;5.68;4.32;;;20.90;58.00;;;;;;5003922;28;20044;-75
2022/08/15 05:45:15;;;;;;;4.93;4.35;;;20.90;58.30;;;;;;5014311;28;20041;-78
2022/08/15 05:48:03;;;;;;;4.85;4.35;;;21.00;58.20;;;;;;5006320;28;20044;-78
2022/08/15 05:50:33;;;;;;;4.10;3.70;;;21.00;58.10;;;;;;5008868;28;20063;-76
2022/08/15 05:53:31;;;;;;;5.32;4.45;;;21.00;58.10;;;;;;5035564;28;20041;-77
2022/08/15 05:56:32;;;;;;;5.22;4.40;;;21.00;58.50;;;;;;5026314;28;20091;-76
2022/08/15 05:59:07;;;;;;;5.03;4.23;;;21.00;58.20;;;;;;5010745;28;20038;-76
2022/08/15 06:01:35;;;;;;;5.53;4.45;;;21.00;58.10;;;;;;5032635;28;20037;-78
2022/08/15 06:04:21;;;;;;;7.25;4.38;;;21.10;58.20;;;;;;5023319;28;20126;-77
2022/08/15 06:06:47;;;;;;;7.13;4.40;;;21.10;58.30;;;;;;5026811;28;20096;-77
2022/08/15 06:09:28;;;;;;;7.93;4.40;;;21.10;58.10;;;;;;5005945;28;20034;-77
2022/08/15 06:11:55;;;;;;;7.35;4.07;;;21.10;58.30;;;;;;5033763;28;20044;-76
2022/08/15 06:14:20;;;;;;;6.43;3.72;;;21.10;58.30;;;;;;5033404;28;20033;-76
2022/08/15 06:16:51;;;;;;;6.88;3.10;;;21.10;58.30;;;;;;5035851;28;20152;-76
2022/08/15 06:19:28;;;;;;;6.50;3.88;;;21.10;58.30;;;;;;4990275;28;20037;-75
2022/08/15 06:22:00;;;;;;;11.30;4.57;;;21.20;58.70;;;;;;4980372;28;20049;-77
2022/08/15 06:24:31;;;;;;;9.85;3.67;;;21.20;58.50;;;;;;5008899;28;20038;-77
2022/08/15 06:27:21;;;;;;;10.57;3.63;;;21.20;58.40;;;;;;5038381;28;20351;-76
2022/08/15 06:30:07;;;;;;;5.07;3.33;;;21.30;58.80;;;;;;5028483;28;20033;-77
2022/08/15 06:32:40;;;;;;;5.75;3.10;;;21.30;58.80;;;;;;5024913;28;20192;-77
2022/08/15 06:35:23;;;;;;;6.95;3.08;;;21.30;58.60;;;;;;5020673;28;20082;-77
2022/08/15 06:38:00;;;;;;;4.38;3.00;;;21.30;58.60;;;;;;5045914;28;20274;-76
2022/08/15 06:40:45;;;;;;;7.00;3.55;;;21.40;59.00;;;;;;5054479;28;20118;-76
2022/08/15 06:43:11;;;;;;;7.82;3.20;;;21.40;59.20;;;;;;5027419;28;20040;-77
2022/08/15 06:45:38;;;;;;;8.10;2.97;;;21.40;58.80;;;;;;5018020;28;20049;-76
2022/08/15 06:48:15;;;;;;;8.63;3.53;;;21.40;59.00;;;;;;5026735;28;20041;-77
2022/08/15 06:50:55;;;;;;;5.50;2.72;;;21.50;59.40;;;;;;5016179;28;20045;-76
2022/08/15 06:53:25;;;;;;;6.38;3.00;;;21.50;59.50;;;;;;5026851;28;20045;-77
2022/08/15 06:56:02;;;;;;;4.82;3.17;;;21.60;59.20;;;;;;4985389;28;20097;-77
2022/08/15 06:58:37;;;;;;;9.45;3.80;;;21.60;59.40;;;;;;4987130;28;20044;-78
2022/08/15 07:01:11;;;;;;;5.28;3.40;;;21.70;59.30;;;;;;5012634;28;20699;-77
2022/08/15 07:04:15;;;;;;;4.43;2.95;;;21.70;59.60;;;;;;5013931;28;20123;-77
2022/08/15 07:06:50;;;;;;;3.53;2.75;;;21.80;59.90;;;;;;4994953;28;20033;-76
2022/08/15 07:09:19;;;;;;;4.10;2.90;;;21.80;59.40;;;;;;5017094;28;20109;-77
2022/08/15 07:11:59;;;;;;;5.53;3.13;;;21.90;59.40;;;;;;5025837;28;20116;-76
2022/08/15 07:14:58;;;;;;;3.33;3.03;;;21.90;59.80;;;;;;5020705;28;20043;-77
2022/08/15 07:17:35;;;;;;;3.45;2.92;;;22.10;59.80;;;;;;5000526;28;20639;-77
2022/08/15 07:20:01;;;;;;;7.80;2.83;;;22.10;59.60;;;;;;5017771;28;20041;-76
2022/08/15 07:22:27;;;;;;;4.82;3.22;;;22.20;59.30;;;;;;5032399;28;20037;-77
2022/08/15 07:24:53;;;;;;;4.53;2.78;;;22.20;59.30;;;;;;5018825;28;20116;-77
2022/08/15 07:27:29;;;;;;;7.07;3.08;;;22.30;59.30;;;;;;5000685;28;20056;-76
2022/08/15 07:29:58;;;;;;;5.32;2.90;;;22.40;59.40;;;;;;5014644;28;20108;-77
2022/08/15 07:32:46;;;;;;;5.43;2.78;;;22.40;59.10;;;;;;5016236;28;20145;-76
2022/08/15 07:35:16;;;;;;;4.47;2.80;;;22.50;59.50;;;;;;5014379;28;20037;-76
2022/08/15 07:37:50;;;;;;;6.07;3.05;;;22.60;59.00;;;;;;5030865;28;20033;-77
2022/08/15 07:40:40;;;;;;;6.05;2.67;;;22.70;59.20;;;;;;5035228;28;20055;-76
2022/08/15 07:43:28;;;;;;;4.50;2.60;;;22.80;59.10;;;;;;5019688;28;20041;-77
2022/08/15 07:46:04;;;;;;;5.47;2.88;;;22.90;59.30;;;;;;5024070;28;20088;-77
2022/08/15 07:48:30;;;;;;;4.40;2.95;;;23.00;59.00;;;;;;5021926;28;20282;-77
2022/08/15 07:51:14;;;;;;;4.78;3.15;;;23.00;58.60;;;;;;5011165;28;20518;-76
2022/08/15 07:53:55;;;;;;;3.45;3.00;;;23.20;58.90;;;;;;5015852;28;20040;-76
2022/08/15 07:56:21;;;;;;;4.30;2.90;;;23.20;58.70;;;;;;5029199;28;20038;-77
2022/08/15 07:58:47;;;;;;;5.53;2.92;;;23.30;58.30;;;;;;5005763;28;20052;-76
2022/08/15 08:01:28;;;;;;;5.07;3.00;;;23.30;58.20;;;;;;4998969;28;20038;-76
2022/08/15 08:04:18;;;;;;;4.97;2.75;;;23.40;58.20;;;;;;5034637;28;20033;-76
2022/08/15 08:07:04;;;;;;;4.55;2.75;;;23.50;58.30;;;;;;5017799;28;20118;-76
2022/08/15 08:10:01;;;;;;;3.72;3.10;;;23.50;58.20;;;;;;5036222;28;20060;-76
2022/08/15 08:12:54;;;;;;;5.53;2.88;;;23.60;58.10;;;;;;5011153;28;20703;-76
2022/08/15 08:15:38;;;;;;;5.70;3.78;;;23.60;57.80;;;;;;5027917;28;20102;-77
2022/08/15 08:18:06;;;;;;;3.88;2.92;;;23.70;57.70;;;;;;5029290;28;20048;-76
2022/08/15 08:20:47;;;;;;;4.25;2.70;;;23.80;57.50;;;;;;5018295;28;20033;-76
2022/08/15 08:23:18;;;;;;;7.57;2.78;;;23.80;57.50;;;;;;5018851;28;20063;-76
2022/08/15 08:26:10;;;;;;;6.22;3.10;;;23.90;57.30;;;;;;5037062;28;20033;-76
2022/08/15 08:28:38;;;;;;;7.40;3.20;;;24.00;57.50;;;;;;5003475;28;20041;-75
2022/08/15 08:31:18;;;;;;;5.30;2.65;;;24.00;57.20;;;;;;5041069;28;20037;-76
2022/08/15 08:34:05;;;;;;;5.28;2.70;;;24.10;57.20;;;;;;5017952;28;20051;-76
2022/08/15 08:36:42;;;;;;;6.20;2.88;;;24.20;56.90;;;;;;5016297;28;20099;-76
2022/08/15 08:39:30;;;;;;;4.20;2.80;;;24.30;56.80;;;;;;5018226;28;20076;-75
2022/08/15 08:42:22;;;;;;;4.80;3.33;;;24.50;56.90;;;;;;4996280;28;20456;-76
2022/08/15 08:44:59;;;;;;;4.80;2.85;;;24.60;56.50;;;;;;5043986;28;20036;-76
2022/08/15 08:47:38;;;;;;;5.20;3.08;;;24.80;56.10;;;;;;5011920;28;20114;-76
2022/08/15 08:50:17;;;;;;;3.20;2.75;;;25.00;56.10;;;;;;5025082;28;20584;-76
2022/08/15 08:53:12;;;;;;;6.20;2.75;;;25.20;55.90;;;;;;5011031;28;20045;-76
2022/08/15 08:55:52;;;;;;;4.18;2.60;;;25.40;55.50;;;;;;5001663;28;20124;-76
2022/08/15 08:58:23;;;;;;;5.55;2.88;;;25.60;55.10;;;;;;4984446;28;20255;-75
2022/08/15 09:00:48;;;;;;;5.13;3.13;;;25.80;54.80;;;;;;5025743;28;20040;-76
2022/08/15 09:03:27;;;;;;;4.97;3.10;;;26.00;54.60;;;;;;5016027;28;20390;-75
2022/08/15 09:05:57;;;;;;;4.20;2.90;;;26.20;54.20;;;;;;5019023;28;20034;-76
2022/08/15 09:08:57;;;;;;;3.88;2.70;;;26.40;53.80;;;;;;5010219;28;20033;-76
2022/08/15 09:11:26;;;;;;;3.37;2.80;;;26.50;53.40;;;;;;5011877;28;20038;-75
2022/08/15 09:13:52;;;;;;;5.70;2.92;;;26.60;53.30;;;;;;5015461;28;20268;-76
2022/08/15 09:16:35;;;;;;;5.10;2.92;;;26.70;53.20;;;;;;5008115;28;20041;-76
2022/08/15 09:19:11;;;;;;;3.75;2.97;;;26.80;52.90;;;;;;5023278;28;20037;-75
2022/08/15 09:21:36;;;;;;;4.82;2.47;;;26.90;52.70;;;;;;5018232;28;20099;-75
2022/08/15 09:24:03;;;;;;;6.22;2.92;;;27.00;52.50;;;;;;4996797;28;20041;-76
2022/08/15 09:26:47;;;;;;;6.78;2.92;;;27.10;52.30;;;;;;5029425;28;20056;-75
2022/08/15 09:29:29;;;;;;;5.38;2.67;;;27.20;51.90;;;;;;5009149;28;20097;-76
2022/08/15 09:32:04;;;;;;;3.92;2.75;;;27.30;51.80;;;;;;5004378;28;20034;-76
2022/08/15 09:34:37;;;;;;;6.13;2.63;;;27.30;51.50;;;;;;5029234;28;20033;-76
2022/08/15 09:37:05;;;;;;;4.72;3.00;;;27.40;51.40;;;;;;4998536;28;20050;-76
2022/08/15 09:39:40;;;;;;;4.22;3.13;;;27.40;51.20;;;;;;5041062;28;20357;-76
2022/08/15 09:42:34;;;;;;;3.47;2.67;;;27.50;51.10;;;;;;5028192;28;20041;-78
2022/08/15 09:45:37;;;;;;;3.28;2.40;;;27.50;50.90;;;;;;5001195;28;20097;-76
2022/08/15 09:48:26;;;;;;;3.08;2.60;;;27.60;50.60;;;;;;5049096;28;20209;-76
2022/08/15 09:51:13;;;;;;;3.97;2.72;;;27.70;50.30;;;;;;5012438;28;20045;-75
2022/08/15 09:54:06;;;;;;;5.32;2.50;;;27.80;50.00;;;;;;5040997;28;20057;-76
2022/08/15 09:56:34;;;;;;;3.97;2.35;;;27.90;49.70;;;;;;5019926;28;20044;-76
2022/08/15 09:59:09;;;;;;;5.43;2.67;;;27.90;49.80;;;;;;5024352;28;20073;-76
2022/08/15 10:02:17;;;;;;;3.88;2.60;;;28.00;49.50;;;;;;5042628;28;20040;-76
2022/08/15 10:04:48;;;;;;;3.92;2.40;;;28.10;49.30;;;;;;5020445;28;20041;-77
2022/08/15 10:07:13;;;;;;;3.47;2.58;;;28.10;49.30;;;;;;5033294;28;20049;-77
2022/08/15 10:09:58;;;;;;;7.68;2.10;;;28.20;49.30;;;;;;5036670;28;20604;-75
2022/08/15 10:12:23;;;;;;;3.20;2.22;;;28.30;49.20;;;;;;5046710;28;20038;-76
2022/08/15 10:14:52;;;;;;;4.20;2.10;;;28.40;49.20;;;;;;5023438;28;20059;-76
2022/08/15 10:17:28;;;;;;;2.10;1.95;;;28.40;49.10;;;;;;5048447;28;20346;-75
2022/08/15 10:19:55;;;;;;;2.70;2.15;;;28.50;49.00;;;;;;5006698;28;20030;-75
2022/08/15 10:22:24;;;;;;;2.05;1.88;;;28.50;48.90;;;;;;4998070;28;20034;-75
2022/08/15 10:25:28;;;;;;;2.58;2.10;;;28.50;48.90;;;;;;5031533;28;20041;-76
2022/08/15 10:28:12;;;;;;;3.30;2.00;;;28.40;48.80;;;;;;5046909;28;20506;-76
2022/08/15 10:30:51;;;;;;;2.08;1.90;;;28.50;48.70;;;;;;5025751;28;20072;-76
2022/08/15 10:33:29;;;;;;;2.03;1.65;;;28.50;48.60;;;;;;5020594;28;20048;-76
2022/08/15 10:36:05;;;;;;;2.15;1.95;;;28.50;48.50;;;;;;5026312;28;20455;-75
2022/08/15 10:38:30;;;;;;;3.33;2.22;;;28.50;48.50;;;;;;5024384;28;20109;-75
2022/08/15 10:41:15;;;;;;;2.20;2.00;;;28.60;48.60;;;;;;5029368;28;20120;-75
2022/08/15 10:43:46;;;;;;;6.00;2.03;;;28.70;48.20;;;;;;5033456;28;20037;-75
2022/08/15 10:46:38;;;;;;;2.45;1.95;;;28.70;48.20;;;;;;5030353;28;20090;-76
2022/08/15 10:49:09;;;;;;;2.38;1.90;;;28.80;48.10;;;;;;5008109;28;20557;-75
2022/08/15 10:51:43;;;;;;;3.92;2.05;;;28.80;48.00;;;;;;5035706;28;20041;-76
2022/08/15 10:54:32;;;;;;;2.53;2.28;;;28.90;47.90;;;;;;5037750;28;20045;-76
2022/08/15 10:56:58;;;;;;;2.95;2.22;;;29.00;47.60;;;;;;5020976;28;20109;-75
2022/08/15 10:59:28;;;;;;;4.55;2.15;;;29.00;47.60;;;;;;5010176;28;20138;-76
2022/08/15 11:02:24;;;;;;;4.00;2.40;;;29.00;47.50;;;;;;5028075;28;20044;-76
2022/08/15 11:04:49;;;;;;;2.20;2.00;;;29.00;47.40;;;;;;5014061;28;20114;-76
2022/08/15 11:07:30;;;;;;;3.40;2.40;;;29.10;47.40;;;;;;5032870;28;20503;-76
2022/08/15 11:09:58;;;;;;;3.97;2.35;;;29.20;47.40;;;;;;5016852;28;20136;-75
2022/08/15 11:12:27;;;;;;;3.58;2.05;;;29.20;47.20;;;;;;5001290;28;20304;-77
2022/08/15 11:14:59;;;;;;;2.25;2.05;;;29.30;47.20;;;;;;5036312;28;20104;-76
2022/08/15 11:17:28;;;;;;;3.58;2.33;;;29.50;47.20;;;;;;5031437;28;20076;-77
2022/08/15 11:20:05;;;;;;;2.78;2.30;;;29.50;47.00;;;;;;5026756;28;20037;-77
2022/08/15 11:22:33;;;;;;;4.10;2.35;;;29.60;46.70;;;;;;5031528;28;20041;-77
2022/08/15 11:25:11;;;;;;;6.13;3.15;;;29.80;46.60;;;;;;5011692;28;20037;-77
2022/08/15 11:27:36;;;;;;;2.50;2.28;;;29.90;46.30;;;;;;5006729;28;1141923;-77
2022/08/15 11:30:04;;;;;;;2.30;2.03;;;30.00;46.10;;;;;;5013909;28;20044;-77
2022/08/15 11:32:35;;;;;;;5.32;2.10;;;30.20;45.90;;;;;;5048850;28;20103;-76
2022/08/15 11:35:03;;;;;;;2.95;2.10;;;30.30;45.60;;;;;;5032307;28;20108;-77
2022/08/15 11:37:39;;;;;;;4.30;2.13;;;30.40;45.30;;;;;;5044652;28;20033;-78
2022/08/15 11:40:08;;;;;;;4.13;1.98;;;30.60;44.80;;;;;;5028416;28;20123;-77
2022/08/15 11:42:38;;;;;;;2.30;1.80;;;30.60;44.60;;;;;;5035169;28;20159;-77
2022/08/15 11:45:10;;;;;;;3.58;2.00;;;30.80;44.50;;;;;;5033759;28;20057;-80
2022/08/15 11:47:36;;;;;;;4.80;1.88;;;30.90;44.30;;;;;;5002228;28;20057;-77
2022/08/15 11:50:07;;;;;;;3.40;1.90;;;30.90;44.00;;;;;;5009646;28;20085;-78
2022/08/15 11:52:35;;;;;;;1.92;1.70;;;31.00;43.70;;;;;;5022821;28;20059;-77
2022/08/15 11:55:22;;;;;;;2.35;1.67;;;31.00;43.50;;;;;;5022541;28;20112;-77
2022/08/15 11:57:49;;;;;;;1.45;1.33;;;31.10;43.10;;;;;;5032050;28;20060;-78
2022/08/15 12:00:27;;;;;;;2.28;1.50;;;31.10;43.30;;;;;;5035804;28;20544;-78
2022/08/15 12:02:53;;;;;;;2.85;1.63;;;31.20;42.90;;;;;;5034309;28;20033;-77
2022/08/15 12:05:32;;;;;;;2.15;1.65;;;31.20;42.70;;;;;;5017647;28;20038;-77
2022/08/15 12:08:02;;;;;;;2.22;1.35;;;31.30;42.20;;;;;;5018610;28;20033;-77
2022/08/15 12:10:33;;;;;;;2.38;1.50;;;31.30;42.70;;;;;;5021707;28;20051;-77
2022/08/15 12:12:59;;;;;;;1.70;1.30;;;31.40;42.20;;;;;;5017909;28;20357;-77
2022/08/15 12:15:37;;;;;;;1.55;1.40;;;31.60;42.00;;;;;;5017299;28;20036;-77
2022/08/15 12:18:18;;;;;;;1.30;1.20;;;31.60;41.20;;;;;;5028847;28;20040;-75
2022/08/15 12:20:59;;;;;;;1.88;1.77;;;31.70;41.10;;;;;;5043981;28;20033;-74
2022/08/15 12:23:35;;;;;;;4.03;1.53;;;31.80;40.80;;;;;;5043980;28;20041;-75
2022/08/15 12:26:03;;;;;;;2.60;1.30;;;31.90;40.80;;;;;;5043073;28;20280;-74
2022/08/15 12:28:29;;;;;;;3.33;1.67;;;31.90;40.70;;;;;;4995466;28;20359;-75
2022/08/15 12:31:02;;;;;;;1.73;1.50;;;31.90;40.60;;;;;;5026683;28;20139;-75
2022/08/15 12:33:27;;;;;;;1.52;1.38;;;32.00;40.50;;;;;;5045761;28;20045;-75
2022/08/15 12:35:53;;;;;;;1.50;1.30;;;32.00;40.30;;;;;;5005623;28;20021;-75
2022/08/15 12:38:19;;;;;;;1.58;1.25;;;32.00;40.00;;;;;;5019947;28;20032;-75
2022/08/15 12:40:45;;;;;;;4.10;1.20;;;32.10;40.00;;;;;;5026896;28;20040;-75
2022/08/15 12:43:11;;;;;;;1.75;1.50;;;32.20;39.70;;;;;;5017407;28;20037;-75
2022/08/15 12:45:36;;;;;;;2.47;1.73;;;32.30;39.40;;;;;;5044361;28;20033;-76
2022/08/15 12:48:13;;;;;;;1.20;1.10;;;32.50;39.20;;;;;;5011659;28;20448;-75
2022/08/15 12:50:38;;;;;;;3.03;1.13;;;32.60;38.90;;;;;;5023494;28;20041;-77
2022/08/15 12:53:04;;;;;;;1.30;1.20;;;32.60;38.60;;;;;;5036690;28;20044;-75
2022/08/15 12:55:30;;;;;;;1.63;1.23;;;32.60;38.60;;;;;;5037763;28;20045;-76
2022/08/15 12:57:56;;;;;;;3.22;1.38;;;32.60;38.40;;;;;;5011864;28;20037;-74
2022/08/15 13:00:22;;;;;;;2.72;1.33;;;32.60;38.40;;;;;;5023779;28;20684;-75
2022/08/15 13:02:49;;;;;;;2.22;1.25;;;32.60;38.30;;;;;;5027048;28;20034;-75
2022/08/15 13:05:20;;;;;;;1.55;1.08;;;32.70;38.20;;;;;;5032323;28;20092;-76
2022/08/15 13:07:45;;;;;;;1.17;1.08;;;32.70;37.90;;;;;;5013725;28;20139;-76
2022/08/15 13:10:11;;;;;;;3.53;1.30;;;32.70;37.90;;;;;;5033001;28;20124;-76
2022/08/15 13:12:37;;;;;;;1.30;1.20;;;32.80;37.80;;;;;;5034862;28;20064;-76
2022/08/15 13:15:03;;;;;;;1.58;1.30;;;32.80;37.60;;;;;;5031319;28;20033;-76